sensor_id;sensor_type;location;lat;lon;timestamp;P1;durP1;ratioP1;P2;durP2;ratioP2
22715;SDS011;11525;51.152;4.456;2022-07-30T00:00:00;16.42;;;9.95;;
22715;SDS011;11525;51.152;4.456;2022-07-30T00:02:26;17.23;;;10.80;;
22715;SDS011;11525;51.152;4.456;2022-07-30T00:04:52;17.42;;;12.23;;
22715;SDS011;11525;51.152;4.456;2022-07-30T00:07:18;17.92;;;11.48;;
22715;SDS011;11525;51.152;4.456;2022-07-30T00:09:44;13.63;;;10.80;;
22715;SDS011;11525;51.152;4.456;2022-07-30T00:12:09;17.70;;;9.77;;
22715;SDS011;11525;51.152;4.456;2022-07-30T00:14:35;14.35;;;10.73;;
22715;SDS011;11525;51.152;4.456;2022-07-30T00:17:02;17.42;;;10.93;;
22715;SDS011;11525;51.152;4.456;2022-07-30T00:19:29;21.40;;;12.00;;
22715;SDS011;11525;51.152;4.456;2022-07-30T00:21:54;20.95;;;11.75;;
22715;SDS011;11525;51.152;4.456;2022-07-30T00:24:21;19.08;;;12.43;;
22715;SDS011;11525;51.152;4.456;2022-07-30T00:26:47;17.63;;;11.68;;
22715;SDS011;11525;51.152;4.456;2022-07-30T00:29:13;22.90;;;12.38;;
22715;SDS011;11525;51.152;4.456;2022-07-30T00:31:40;19.45;;;12.32;;
22715;SDS011;11525;51.152;4.456;2022-07-30T00:34:06;20.17;;;13.30;;
22715;SDS011;11525;51.152;4.456;2022-07-30T00:36:32;22.02;;;11.93;;
22715;SDS011;11525;51.152;4.456;2022-07-30T00:38:58;20.10;;;11.55;;
22715;SDS011;11525;51.152;4.456;2022-07-30T00:41:24;15.93;;;11.95;;
22715;SDS011;11525;51.152;4.456;2022-07-30T00:43:50;15.85;;;12.25;;
22715;SDS011;11525;51.152;4.456;2022-07-30T00:46:16;17.88;;;11.35;;
22715;SDS011;11525;51.152;4.456;2022-07-30T00:48:42;18.50;;;11.82;;
22715;SDS011;11525;51.152;4.456;2022-07-30T00:51:08;15.43;;;11.60;;
22715;SDS011;11525;51.152;4.456;2022-07-30T00:53:34;15.20;;;11.38;;
22715;SDS011;11525;51.152;4.456;2022-07-30T00:56:01;17.77;;;11.63;;
22715;SDS011;11525;51.152;4.456;2022-07-30T00:58:27;21.05;;;13.02;;
22715;SDS011;11525;51.152;4.456;2022-07-30T01:00:55;20.60;;;15.25;;
22715;SDS011;11525;51.152;4.456;2022-07-30T01:03:20;17.85;;;13.00;;
22715;SDS011;11525;51.152;4.456;2022-07-30T01:05:46;18.63;;;13.32;;
22715;SDS011;11525;51.152;4.456;2022-07-30T01:08:12;18.13;;;12.65;;
22715;SDS011;11525;51.152;4.456;2022-07-30T01:10:38;25.45;;;15.02;;
22715;SDS011;11525;51.152;4.456;2022-07-30T01:13:04;22.75;;;13.63;;
22715;SDS011;11525;51.152;4.456;2022-07-30T01:15:32;19.40;;;11.77;;
22715;SDS011;11525;51.152;4.456;2022-07-30T01:17:59;23.25;;;13.00;;
22715;SDS011;11525;51.152;4.456;2022-07-30T01:20:32;18.45;;;12.60;;
22715;SDS011;11525;51.152;4.456;2022-07-30T01:25:55;20.08;;;12.20;;
22715;SDS011;11525;51.152;4.456;2022-07-30T01:28:27;20.48;;;13.93;;
22715;SDS011;11525;51.152;4.456;2022-07-30T01:30:57;19.73;;;14.10;;
22715;SDS011;11525;51.152;4.456;2022-07-30T01:33:24;18.15;;;13.20;;
22715;SDS011;11525;51.152;4.456;2022-07-30T01:35:51;22.80;;;13.80;;
22715;SDS011;11525;51.152;4.456;2022-07-30T01:38:20;23.08;;;14.95;;
22715;SDS011;11525;51.152;4.456;2022-07-30T01:40:48;21.27;;;14.50;;
22715;SDS011;11525;51.152;4.456;2022-07-30T01:43:16;22.63;;;14.35;;
22715;SDS011;11525;51.152;4.456;2022-07-30T01:45:43;22.40;;;14.40;;
22715;SDS011;11525;51.152;4.456;2022-07-30T01:48:12;21.95;;;13.82;;
22715;SDS011;11525;51.152;4.456;2022-07-30T01:50:41;18.95;;;14.80;;
22715;SDS011;11525;51.152;4.456;2022-07-30T01:53:13;19.48;;;16.08;;
22715;SDS011;11525;51.152;4.456;2022-07-30T01:55:40;23.50;;;16.70;;
22715;SDS011;11525;51.152;4.456;2022-07-30T01:58:09;19.83;;;15.88;;
22715;SDS011;11525;51.152;4.456;2022-07-30T02:00:37;22.95;;;16.92;;
22715;SDS011;11525;51.152;4.456;2022-07-30T02:03:04;19.08;;;15.98;;
22715;SDS011;11525;51.152;4.456;2022-07-30T02:05:33;26.13;;;16.38;;
22715;SDS011;11525;51.152;4.456;2022-07-30T02:10:49;25.17;;;17.23;;
22715;SDS011;11525;51.152;4.456;2022-07-30T02:13:21;20.55;;;16.33;;
22715;SDS011;11525;51.152;4.456;2022-07-30T02:15:55;19.17;;;15.88;;
22715;SDS011;11525;51.152;4.456;2022-07-30T02:18:27;20.60;;;16.98;;
22715;SDS011;11525;51.152;4.456;2022-07-30T02:21:02;19.98;;;15.98;;
22715;SDS011;11525;51.152;4.456;2022-07-30T02:23:31;27.67;;;19.20;;
22715;SDS011;11525;51.152;4.456;2022-07-30T02:26:02;21.42;;;17.30;;
22715;SDS011;11525;51.152;4.456;2022-07-30T02:28:29;20.33;;;17.35;;
22715;SDS011;11525;51.152;4.456;2022-07-30T02:31:00;24.15;;;17.85;;
22715;SDS011;11525;51.152;4.456;2022-07-30T02:33:29;21.92;;;16.92;;
22715;SDS011;11525;51.152;4.456;2022-07-30T02:35:58;27.63;;;17.45;;
22715;SDS011;11525;51.152;4.456;2022-07-30T02:38:26;30.02;;;21.25;;
22715;SDS011;11525;51.152;4.456;2022-07-30T02:40:54;29.75;;;20.95;;
22715;SDS011;11525;51.152;4.456;2022-07-30T02:43:23;32.08;;;21.75;;
22715;SDS011;11525;51.152;4.456;2022-07-30T02:45:50;24.08;;;20.63;;
22715;SDS011;11525;51.152;4.456;2022-07-30T02:48:16;28.70;;;20.88;;
22715;SDS011;11525;51.152;4.456;2022-07-30T02:50:46;24.23;;;19.98;;
22715;SDS011;11525;51.152;4.456;2022-07-30T02:53:15;27.08;;;20.95;;
22715;SDS011;11525;51.152;4.456;2022-07-30T02:55:43;27.52;;;22.52;;
22715;SDS011;11525;51.152;4.456;2022-07-30T02:58:10;29.20;;;22.20;;
22715;SDS011;11525;51.152;4.456;2022-07-30T03:00:42;30.90;;;22.65;;
22715;SDS011;11525;51.152;4.456;2022-07-30T03:03:09;26.85;;;22.40;;
22715;SDS011;11525;51.152;4.456;2022-07-30T03:05:38;28.42;;;22.10;;
22715;SDS011;11525;51.152;4.456;2022-07-30T03:08:04;31.33;;;23.20;;
22715;SDS011;11525;51.152;4.456;2022-07-30T03:10:32;27.58;;;22.70;;
22715;SDS011;11525;51.152;4.456;2022-07-30T03:12:58;24.92;;;21.25;;
22715;SDS011;11525;51.152;4.456;2022-07-30T03:15:25;29.55;;;21.92;;
22715;SDS011;11525;51.152;4.456;2022-07-30T03:17:53;32.60;;;24.05;;
22715;SDS011;11525;51.152;4.456;2022-07-30T03:20:22;25.88;;;22.95;;
22715;SDS011;11525;51.152;4.456;2022-07-30T03:22:51;37.00;;;25.33;;
22715;SDS011;11525;51.152;4.456;2022-07-30T03:25:23;31.15;;;24.08;;
22715;SDS011;11525;51.152;4.456;2022-07-30T03:27:51;31.27;;;24.17;;
22715;SDS011;11525;51.152;4.456;2022-07-30T03:30:21;32.03;;;25.02;;
22715;SDS011;11525;51.152;4.456;2022-07-30T03:32:48;32.55;;;26.65;;
22715;SDS011;11525;51.152;4.456;2022-07-30T03:35:16;37.08;;;25.10;;
22715;SDS011;11525;51.152;4.456;2022-07-30T03:37:42;26.08;;;23.30;;
22715;SDS011;11525;51.152;4.456;2022-07-30T03:40:09;28.08;;;23.90;;
22715;SDS011;11525;51.152;4.456;2022-07-30T03:42:35;28.13;;;23.80;;
22715;SDS011;11525;51.152;4.456;2022-07-30T03:45:03;29.23;;;23.23;;
22715;SDS011;11525;51.152;4.456;2022-07-30T03:47:31;27.95;;;24.13;;
22715;SDS011;11525;51.152;4.456;2022-07-30T03:50:00;28.05;;;21.83;;
22715;SDS011;11525;51.152;4.456;2022-07-30T03:52:26;26.30;;;22.10;;
22715;SDS011;11525;51.152;4.456;2022-07-30T03:54:52;25.60;;;22.65;;
22715;SDS011;11525;51.152;4.456;2022-07-30T03:57:19;32.55;;;22.27;;
22715;SDS011;11525;51.152;4.456;2022-07-30T03:59:45;33.80;;;21.23;;
22715;SDS011;11525;51.152;4.456;2022-07-30T04:02:11;32.10;;;23.48;;
22715;SDS011;11525;51.152;4.456;2022-07-30T04:04:41;28.10;;;20.63;;
22715;SDS011;11525;51.152;4.456;2022-07-30T04:07:07;27.77;;;19.98;;
22715;SDS011;11525;51.152;4.456;2022-07-30T04:09:33;25.90;;;20.20;;
22715;SDS011;11525;51.152;4.456;2022-07-30T04:11:59;22.15;;;17.90;;
22715;SDS011;11525;51.152;4.456;2022-07-30T04:14:25;25.88;;;18.77;;
22715;SDS011;11525;51.152;4.456;2022-07-30T04:19:28;29.52;;;20.65;;
22715;SDS011;11525;51.152;4.456;2022-07-30T04:21:58;25.85;;;22.33;;
22715;SDS011;11525;51.152;4.456;2022-07-30T04:24:26;26.60;;;20.23;;
22715;SDS011;11525;51.152;4.456;2022-07-30T04:26:53;30.33;;;23.08;;
22715;SDS011;11525;51.152;4.456;2022-07-30T04:29:21;30.25;;;23.88;;
22715;SDS011;11525;51.152;4.456;2022-07-30T04:31:47;26.40;;;22.05;;
22715;SDS011;11525;51.152;4.456;2022-07-30T04:34:13;23.95;;;21.50;;
22715;SDS011;11525;51.152;4.456;2022-07-30T04:36:39;27.33;;;22.90;;
22715;SDS011;11525;51.152;4.456;2022-07-30T04:39:06;30.88;;;23.42;;
22715;SDS011;11525;51.152;4.456;2022-07-30T04:41:33;28.95;;;24.27;;
22715;SDS011;11525;51.152;4.456;2022-07-30T04:43:59;34.95;;;23.98;;
22715;SDS011;11525;51.152;4.456;2022-07-30T04:46:24;26.55;;;21.55;;
22715;SDS011;11525;51.152;4.456;2022-07-30T04:48:50;24.95;;;22.08;;
22715;SDS011;11525;51.152;4.456;2022-07-30T04:51:34;26.85;;;22.58;;
22715;SDS011;11525;51.152;4.456;2022-07-30T04:54:02;23.70;;;19.02;;
22715;SDS011;11525;51.152;4.456;2022-07-30T04:56:31;21.40;;;16.73;;
22715;SDS011;11525;51.152;4.456;2022-07-30T04:58:59;23.02;;;14.77;;
22715;SDS011;11525;51.152;4.456;2022-07-30T05:01:28;16.80;;;13.00;;
22715;SDS011;11525;51.152;4.456;2022-07-30T05:03:58;13.10;;;11.20;;
22715;SDS011;11525;51.152;4.456;2022-07-30T05:06:26;21.33;;;11.23;;
22715;SDS011;11525;51.152;4.456;2022-07-30T05:08:53;13.25;;;10.88;;
22715;SDS011;11525;51.152;4.456;2022-07-30T05:11:19;19.13;;;12.60;;
22715;SDS011;11525;51.152;4.456;2022-07-30T05:13:46;16.63;;;11.13;;
22715;SDS011;11525;51.152;4.456;2022-07-30T05:16:12;17.55;;;12.55;;
22715;SDS011;11525;51.152;4.456;2022-07-30T05:18:39;14.70;;;12.95;;
22715;SDS011;11525;51.152;4.456;2022-07-30T05:21:05;20.30;;;13.48;;
22715;SDS011;11525;51.152;4.456;2022-07-30T05:23:31;17.65;;;13.75;;
22715;SDS011;11525;51.152;4.456;2022-07-30T05:25:57;19.65;;;12.77;;
22715;SDS011;11525;51.152;4.456;2022-07-30T05:28:23;16.65;;;13.25;;
22715;SDS011;11525;51.152;4.456;2022-07-30T05:30:53;17.77;;;13.82;;
22715;SDS011;11525;51.152;4.456;2022-07-30T05:33:22;19.48;;;14.45;;
22715;SDS011;11525;51.152;4.456;2022-07-30T05:35:48;16.33;;;13.45;;
22715;SDS011;11525;51.152;4.456;2022-07-30T05:38:14;19.17;;;14.25;;
22715;SDS011;11525;51.152;4.456;2022-07-30T05:40:41;19.00;;;14.20;;
22715;SDS011;11525;51.152;4.456;2022-07-30T05:43:08;19.70;;;14.82;;
22715;SDS011;11525;51.152;4.456;2022-07-30T05:45:34;16.45;;;12.70;;
22715;SDS011;11525;51.152;4.456;2022-07-30T05:48:00;19.10;;;13.50;;
22715;SDS011;11525;51.152;4.456;2022-07-30T05:50:26;17.65;;;12.40;;
22715;SDS011;11525;51.152;4.456;2022-07-30T05:52:52;18.65;;;13.00;;
22715;SDS011;11525;51.152;4.456;2022-07-30T05:55:20;17.10;;;12.35;;
22715;SDS011;11525;51.152;4.456;2022-07-30T05:57:45;15.85;;;11.70;;
22715;SDS011;11525;51.152;4.456;2022-07-30T06:00:12;14.95;;;10.50;;
22715;SDS011;11525;51.152;4.456;2022-07-30T06:02:38;13.50;;;11.48;;
22715;SDS011;11525;51.152;4.456;2022-07-30T06:05:04;14.57;;;11.63;;
22715;SDS011;11525;51.152;4.456;2022-07-30T06:07:30;13.77;;;11.15;;
22715;SDS011;11525;51.152;4.456;2022-07-30T06:09:56;13.32;;;10.80;;
22715;SDS011;11525;51.152;4.456;2022-07-30T06:12:27;14.85;;;9.55;;
22715;SDS011;11525;51.152;4.456;2022-07-30T06:14:53;13.80;;;9.38;;
22715;SDS011;11525;51.152;4.456;2022-07-30T06:17:19;11.65;;;8.05;;
22715;SDS011;11525;51.152;4.456;2022-07-30T06:19:45;9.43;;;6.65;;
22715;SDS011;11525;51.152;4.456;2022-07-30T06:22:11;8.43;;;6.57;;
22715;SDS011;11525;51.152;4.456;2022-07-30T06:24:37;11.30;;;5.68;;
22715;SDS011;11525;51.152;4.456;2022-07-30T06:27:03;5.90;;;4.32;;
22715;SDS011;11525;51.152;4.456;2022-07-30T06:29:29;5.40;;;3.78;;
22715;SDS011;11525;51.152;4.456;2022-07-30T06:31:55;7.00;;;3.95;;
22715;SDS011;11525;51.152;4.456;2022-07-30T06:34:21;7.72;;;4.68;;
22715;SDS011;11525;51.152;4.456;2022-07-30T06:36:47;9.55;;;5.15;;
22715;SDS011;11525;51.152;4.456;2022-07-30T06:39:13;9.05;;;5.53;;
22715;SDS011;11525;51.152;4.456;2022-07-30T06:41:39;9.18;;;4.43;;
22715;SDS011;11525;51.152;4.456;2022-07-30T06:44:05;6.47;;;4.80;;
22715;SDS011;11525;51.152;4.456;2022-07-30T06:46:31;6.35;;;4.13;;
22715;SDS011;11525;51.152;4.456;2022-07-30T06:48:57;7.05;;;4.00;;
22715;SDS011;11525;51.152;4.456;2022-07-30T06:51:23;6.00;;;4.35;;
22715;SDS011;11525;51.152;4.456;2022-07-30T06:53:48;9.23;;;5.00;;
22715;SDS011;11525;51.152;4.456;2022-07-30T06:56:14;11.15;;;4.43;;
22715;SDS011;11525;51.152;4.456;2022-07-30T06:58:40;8.15;;;4.40;;
22715;SDS011;11525;51.152;4.456;2022-07-30T07:01:06;8.70;;;4.82;;
22715;SDS011;11525;51.152;4.456;2022-07-30T07:03:31;7.78;;;3.97;;
22715;SDS011;11525;51.152;4.456;2022-07-30T07:05:57;11.32;;;4.80;;
22715;SDS011;11525;51.152;4.456;2022-07-30T07:08:23;9.85;;;4.90;;
22715;SDS011;11525;51.152;4.456;2022-07-30T07:10:49;9.35;;;4.85;;
22715;SDS011;11525;51.152;4.456;2022-07-30T07:13:15;9.48;;;4.80;;
22715;SDS011;11525;51.152;4.456;2022-07-30T07:15:40;6.70;;;5.03;;
22715;SDS011;11525;51.152;4.456;2022-07-30T07:18:06;7.40;;;4.10;;
22715;SDS011;11525;51.152;4.456;2022-07-30T07:20:32;9.88;;;4.80;;
22715;SDS011;11525;51.152;4.456;2022-07-30T07:22:59;9.38;;;3.08;;
22715;SDS011;11525;51.152;4.456;2022-07-30T07:25:25;10.68;;;4.07;;
22715;SDS011;11525;51.152;4.456;2022-07-30T07:27:51;6.80;;;4.20;;
22715;SDS011;11525;51.152;4.456;2022-07-30T07:30:17;8.27;;;4.28;;
22715;SDS011;11525;51.152;4.456;2022-07-30T07:32:43;7.88;;;4.30;;
22715;SDS011;11525;51.152;4.456;2022-07-30T07:35:09;6.38;;;3.47;;
22715;SDS011;11525;51.152;4.456;2022-07-30T07:37:36;5.22;;;2.55;;
22715;SDS011;11525;51.152;4.456;2022-07-30T07:40:02;7.20;;;3.08;;
22715;SDS011;11525;51.152;4.456;2022-07-30T07:42:28;7.10;;;3.78;;
22715;SDS011;11525;51.152;4.456;2022-07-30T07:44:54;6.57;;;3.60;;
22715;SDS011;11525;51.152;4.456;2022-07-30T07:47:20;7.82;;;4.05;;
22715;SDS011;11525;51.152;4.456;2022-07-30T07:49:46;8.30;;;3.92;;
22715;SDS011;11525;51.152;4.456;2022-07-30T07:52:11;8.80;;;3.70;;
22715;SDS011;11525;51.152;4.456;2022-07-30T07:54:37;6.22;;;2.90;;
22715;SDS011;11525;51.152;4.456;2022-07-30T07:57:03;4.78;;;3.25;;
22715;SDS011;11525;51.152;4.456;2022-07-30T07:59:32;9.70;;;3.50;;
22715;SDS011;11525;51.152;4.456;2022-07-30T08:01:58;9.57;;;3.80;;
22715;SDS011;11525;51.152;4.456;2022-07-30T08:04:24;6.72;;;2.88;;
22715;SDS011;11525;51.152;4.456;2022-07-30T08:06:50;6.07;;;3.83;;
22715;SDS011;11525;51.152;4.456;2022-07-30T08:09:15;7.85;;;3.28;;
22715;SDS011;11525;51.152;4.456;2022-07-30T08:11:41;9.02;;;3.13;;
22715;SDS011;11525;51.152;4.456;2022-07-30T08:14:07;3.75;;;2.47;;
22715;SDS011;11525;51.152;4.456;2022-07-30T08:16:32;5.90;;;2.33;;
22715;SDS011;11525;51.152;4.456;2022-07-30T08:18:59;5.18;;;2.30;;
22715;SDS011;11525;51.152;4.456;2022-07-30T08:21:24;5.18;;;2.60;;
22715;SDS011;11525;51.152;4.456;2022-07-30T08:23:50;9.10;;;3.03;;
22715;SDS011;11525;51.152;4.456;2022-07-30T08:26:16;6.00;;;2.90;;
22715;SDS011;11525;51.152;4.456;2022-07-30T08:28:41;4.63;;;2.40;;
22715;SDS011;11525;51.152;4.456;2022-07-30T08:31:07;4.90;;;2.85;;
22715;SDS011;11525;51.152;4.456;2022-07-30T08:33:33;4.55;;;2.42;;
22715;SDS011;11525;51.152;4.456;2022-07-30T08:36:00;7.50;;;3.00;;
22715;SDS011;11525;51.152;4.456;2022-07-30T08:38:26;6.20;;;2.63;;
22715;SDS011;11525;51.152;4.456;2022-07-30T08:40:53;7.00;;;2.30;;
22715;SDS011;11525;51.152;4.456;2022-07-30T08:43:20;5.53;;;2.63;;
22715;SDS011;11525;51.152;4.456;2022-07-30T08:45:48;7.45;;;2.58;;
22715;SDS011;11525;51.152;4.456;2022-07-30T08:48:15;5.03;;;2.30;;
22715;SDS011;11525;51.152;4.456;2022-07-30T08:50:44;9.27;;;2.95;;
22715;SDS011;11525;51.152;4.456;2022-07-30T08:53:10;7.78;;;2.72;;
22715;SDS011;11525;51.152;4.456;2022-07-30T08:55:38;4.75;;;2.45;;
22715;SDS011;11525;51.152;4.456;2022-07-30T08:58:05;4.05;;;2.05;;
22715;SDS011;11525;51.152;4.456;2022-07-30T09:00:52;4.25;;;3.08;;
22715;SDS011;11525;51.152;4.456;2022-07-30T09:03:18;8.50;;;2.97;;
22715;SDS011;11525;51.152;4.456;2022-07-30T09:05:43;6.45;;;2.55;;
22715;SDS011;11525;51.152;4.456;2022-07-30T09:08:10;6.00;;;2.65;;
22715;SDS011;11525;51.152;4.456;2022-07-30T09:10:36;9.23;;;2.83;;
22715;SDS011;11525;51.152;4.456;2022-07-30T09:13:02;9.00;;;2.42;;
22715;SDS011;11525;51.152;4.456;2022-07-30T09:15:28;5.25;;;2.20;;
22715;SDS011;11525;51.152;4.456;2022-07-30T09:17:55;3.67;;;2.22;;
22715;SDS011;11525;51.152;4.456;2022-07-30T09:20:26;7.07;;;2.60;;
22715;SDS011;11525;51.152;4.456;2022-07-30T09:22:55;6.15;;;2.10;;
22715;SDS011;11525;51.152;4.456;2022-07-30T09:25:32;11.15;;;2.60;;
22715;SDS011;11525;51.152;4.456;2022-07-30T09:27:58;5.07;;;1.98;;
22715;SDS011;11525;51.152;4.456;2022-07-30T09:30:24;6.65;;;2.67;;
22715;SDS011;11525;51.152;4.456;2022-07-30T09:32:50;9.38;;;2.70;;
22715;SDS011;11525;51.152;4.456;2022-07-30T09:35:20;3.30;;;1.52;;
22715;SDS011;11525;51.152;4.456;2022-07-30T09:37:46;2.75;;;1.70;;
22715;SDS011;11525;51.152;4.456;2022-07-30T09:40:23;5.30;;;2.15;;
22715;SDS011;11525;51.152;4.456;2022-07-30T09:42:59;5.45;;;1.95;;
22715;SDS011;11525;51.152;4.456;2022-07-30T09:45:30;5.30;;;2.28;;
22715;SDS011;11525;51.152;4.456;2022-07-30T09:47:56;4.70;;;1.95;;
22715;SDS011;11525;51.152;4.456;2022-07-30T09:50:22;5.45;;;2.00;;
22715;SDS011;11525;51.152;4.456;2022-07-30T09:52:49;3.70;;;1.77;;
22715;SDS011;11525;51.152;4.456;2022-07-30T09:55:32;5.93;;;2.00;;
22715;SDS011;11525;51.152;4.456;2022-07-30T09:58:00;4.88;;;1.50;;
22715;SDS011;11525;51.152;4.456;2022-07-30T10:00:28;3.63;;;1.70;;
22715;SDS011;11525;51.152;4.456;2022-07-30T10:02:56;3.42;;;1.60;;
22715;SDS011;11525;51.152;4.456;2022-07-30T10:05:22;4.07;;;1.73;;
22715;SDS011;11525;51.152;4.456;2022-07-30T10:07:49;3.60;;;1.67;;
22715;SDS011;11525;51.152;4.456;2022-07-30T10:10:17;3.10;;;1.75;;
22715;SDS011;11525;51.152;4.456;2022-07-30T10:12:45;4.28;;;2.00;;
22715;SDS011;11525;51.152;4.456;2022-07-30T10:15:12;3.53;;;1.98;;
22715;SDS011;11525;51.152;4.456;2022-07-30T10:17:39;5.40;;;1.92;;
22715;SDS011;11525;51.152;4.456;2022-07-30T10:20:06;6.05;;;2.17;;
22715;SDS011;11525;51.152;4.456;2022-07-30T10:22:33;2.92;;;1.90;;
22715;SDS011;11525;51.152;4.456;2022-07-30T10:25:00;8.95;;;2.30;;
22715;SDS011;11525;51.152;4.456;2022-07-30T10:27:27;3.40;;;1.38;;
22715;SDS011;11525;51.152;4.456;2022-07-30T10:29:53;7.18;;;2.17;;
22715;SDS011;11525;51.152;4.456;2022-07-30T10:32:19;4.68;;;1.80;;
22715;SDS011;11525;51.152;4.456;2022-07-30T10:34:45;5.90;;;2.40;;
22715;SDS011;11525;51.152;4.456;2022-07-30T10:37:11;5.32;;;2.03;;
22715;SDS011;11525;51.152;4.456;2022-07-30T10:39:44;5.38;;;2.05;;
22715;SDS011;11525;51.152;4.456;2022-07-30T10:42:24;7.70;;;2.45;;
22715;SDS011;11525;51.152;4.456;2022-07-30T10:45:10;4.80;;;2.10;;
22715;SDS011;11525;51.152;4.456;2022-07-30T10:47:46;6.50;;;1.83;;
22715;SDS011;11525;51.152;4.456;2022-07-30T10:50:18;5.75;;;1.90;;
22715;SDS011;11525;51.152;4.456;2022-07-30T10:55:21;7.47;;;2.40;;
22715;SDS011;11525;51.152;4.456;2022-07-30T11:00:57;3.20;;;1.42;;
22715;SDS011;11525;51.152;4.456;2022-07-30T11:03:23;4.90;;;1.58;;
22715;SDS011;11525;51.152;4.456;2022-07-30T11:08:40;4.90;;;2.22;;
22715;SDS011;11525;51.152;4.456;2022-07-30T11:14:18;5.35;;;2.08;;
22715;SDS011;11525;51.152;4.456;2022-07-30T11:19:04;6.38;;;2.28;;
22715;SDS011;11525;51.152;4.456;2022-07-30T11:21:41;4.80;;;2.45;;
22715;SDS011;11525;51.152;4.456;2022-07-30T11:32:43;8.55;;;1.98;;
22715;SDS011;11525;51.152;4.456;2022-07-30T11:35:18;9.20;;;1.92;;
22715;SDS011;11525;51.152;4.456;2022-07-30T11:38:05;4.10;;;2.08;;
22715;SDS011;11525;51.152;4.456;2022-07-30T11:43:14;4.57;;;2.00;;
22715;SDS011;11525;51.152;4.456;2022-07-30T11:45:42;4.65;;;2.00;;
22715;SDS011;11525;51.152;4.456;2022-07-30T11:48:10;6.90;;;1.80;;
22715;SDS011;11525;51.152;4.456;2022-07-30T11:50:37;4.97;;;1.65;;
22715;SDS011;11525;51.152;4.456;2022-07-30T11:53:05;5.28;;;1.55;;
22715;SDS011;11525;51.152;4.456;2022-07-30T11:57:59;5.90;;;1.95;;
22715;SDS011;11525;51.152;4.456;2022-07-30T12:00:40;4.97;;;1.85;;
22715;SDS011;11525;51.152;4.456;2022-07-30T12:03:12;9.02;;;2.08;;
22715;SDS011;11525;51.152;4.456;2022-07-30T12:05:40;3.92;;;1.45;;
22715;SDS011;11525;51.152;4.456;2022-07-30T12:08:06;5.78;;;1.95;;
22715;SDS011;11525;51.152;4.456;2022-07-30T12:10:33;4.53;;;2.10;;
22715;SDS011;11525;51.152;4.456;2022-07-30T12:13:11;5.50;;;1.80;;
22715;SDS011;11525;51.152;4.456;2022-07-30T12:15:39;4.40;;;1.90;;
22715;SDS011;11525;51.152;4.456;2022-07-30T12:18:06;4.90;;;1.77;;
22715;SDS011;11525;51.152;4.456;2022-07-30T12:20:35;5.00;;;1.75;;
22715;SDS011;11525;51.152;4.456;2022-07-30T12:23:01;5.15;;;1.88;;
22715;SDS011;11525;51.152;4.456;2022-07-30T12:25:36;6.32;;;1.30;;
22715;SDS011;11525;51.152;4.456;2022-07-30T12:28:07;4.90;;;1.83;;
22715;SDS011;11525;51.152;4.456;2022-07-30T12:30:38;4.45;;;1.50;;
22715;SDS011;11525;51.152;4.456;2022-07-30T12:33:08;6.18;;;1.85;;
22715;SDS011;11525;51.152;4.456;2022-07-30T12:35:50;3.15;;;1.85;;
22715;SDS011;11525;51.152;4.456;2022-07-30T12:38:18;3.90;;;1.50;;
22715;SDS011;11525;51.152;4.456;2022-07-30T12:40:51;9.27;;;2.03;;
22715;SDS011;11525;51.152;4.456;2022-07-30T12:48:47;5.70;;;1.60;;
22715;SDS011;11525;51.152;4.456;2022-07-30T12:51:26;5.07;;;2.05;;
22715;SDS011;11525;51.152;4.456;2022-07-30T12:53:54;4.38;;;1.80;;
22715;SDS011;11525;51.152;4.456;2022-07-30T12:56:24;3.40;;;1.60;;
22715;SDS011;11525;51.152;4.456;2022-07-30T12:58:52;4.13;;;1.98;;
22715;SDS011;11525;51.152;4.456;2022-07-30T13:01:37;7.50;;;2.00;;
22715;SDS011;11525;51.152;4.456;2022-07-30T13:04:11;3.47;;;1.95;;
22715;SDS011;11525;51.152;4.456;2022-07-30T13:06:38;6.85;;;1.73;;
22715;SDS011;11525;51.152;4.456;2022-07-30T13:09:05;6.28;;;2.05;;
22715;SDS011;11525;51.152;4.456;2022-07-30T13:11:42;4.05;;;1.60;;
22715;SDS011;11525;51.152;4.456;2022-07-30T13:14:09;6.47;;;2.30;;
22715;SDS011;11525;51.152;4.456;2022-07-30T13:16:37;6.13;;;2.22;;
22715;SDS011;11525;51.152;4.456;2022-07-30T13:19:04;5.78;;;2.10;;
22715;SDS011;11525;51.152;4.456;2022-07-30T13:21:31;5.90;;;2.10;;
22715;SDS011;11525;51.152;4.456;2022-07-30T13:23:58;4.75;;;1.85;;
22715;SDS011;11525;51.152;4.456;2022-07-30T13:26:24;4.97;;;2.25;;
22715;SDS011;11525;51.152;4.456;2022-07-30T13:28:50;4.07;;;1.58;;
22715;SDS011;11525;51.152;4.456;2022-07-30T13:31:16;5.93;;;2.13;;
22715;SDS011;11525;51.152;4.456;2022-07-30T13:33:42;7.20;;;2.20;;
22715;SDS011;11525;51.152;4.456;2022-07-30T13:36:11;5.32;;;1.98;;
22715;SDS011;11525;51.152;4.456;2022-07-30T13:38:37;7.20;;;2.38;;
22715;SDS011;11525;51.152;4.456;2022-07-30T13:41:03;5.55;;;2.20;;
22715;SDS011;11525;51.152;4.456;2022-07-30T13:43:29;4.32;;;2.00;;
22715;SDS011;11525;51.152;4.456;2022-07-30T13:45:55;9.90;;;2.55;;
22715;SDS011;11525;51.152;4.456;2022-07-30T13:48:21;4.97;;;2.30;;
22715;SDS011;11525;51.152;4.456;2022-07-30T13:50:47;3.33;;;1.90;;
22715;SDS011;11525;51.152;4.456;2022-07-30T13:53:14;5.15;;;2.25;;
22715;SDS011;11525;51.152;4.456;2022-07-30T13:55:40;4.22;;;2.28;;
22715;SDS011;11525;51.152;4.456;2022-07-30T13:58:07;4.82;;;1.80;;
22715;SDS011;11525;51.152;4.456;2022-07-30T14:00:39;5.93;;;2.00;;
22715;SDS011;11525;51.152;4.456;2022-07-30T14:03:06;4.47;;;1.98;;
22715;SDS011;11525;51.152;4.456;2022-07-30T14:05:37;6.30;;;1.88;;
22715;SDS011;11525;51.152;4.456;2022-07-30T14:08:04;3.80;;;1.70;;
22715;SDS011;11525;51.152;4.456;2022-07-30T14:10:32;8.30;;;1.85;;
22715;SDS011;11525;51.152;4.456;2022-07-30T14:13:02;7.43;;;1.80;;
22715;SDS011;11525;51.152;4.456;2022-07-30T14:15:29;5.18;;;2.40;;
22715;SDS011;11525;51.152;4.456;2022-07-30T14:17:56;8.43;;;1.95;;
22715;SDS011;11525;51.152;4.456;2022-07-30T14:20:22;4.97;;;1.88;;
22715;SDS011;11525;51.152;4.456;2022-07-30T14:22:49;6.05;;;2.22;;
22715;SDS011;11525;51.152;4.456;2022-07-30T14:25:15;4.32;;;2.15;;
22715;SDS011;11525;51.152;4.456;2022-07-30T14:27:41;8.27;;;2.08;;
22715;SDS011;11525;51.152;4.456;2022-07-30T14:30:07;4.65;;;1.80;;
22715;SDS011;11525;51.152;4.456;2022-07-30T14:32:34;7.97;;;2.10;;
22715;SDS011;11525;51.152;4.456;2022-07-30T14:35:01;5.82;;;1.75;;
22715;SDS011;11525;51.152;4.456;2022-07-30T14:37:27;7.88;;;2.10;;
22715;SDS011;11525;51.152;4.456;2022-07-30T14:39:53;5.13;;;1.80;;
22715;SDS011;11525;51.152;4.456;2022-07-30T14:42:19;6.18;;;1.80;;
22715;SDS011;11525;51.152;4.456;2022-07-30T14:44:45;5.43;;;2.20;;
22715;SDS011;11525;51.152;4.456;2022-07-30T14:47:12;4.32;;;1.40;;
22715;SDS011;11525;51.152;4.456;2022-07-30T14:49:38;5.60;;;2.20;;
22715;SDS011;11525;51.152;4.456;2022-07-30T14:52:04;4.88;;;1.55;;
22715;SDS011;11525;51.152;4.456;2022-07-30T14:54:30;4.30;;;1.80;;
22715;SDS011;11525;51.152;4.456;2022-07-30T14:56:56;3.53;;;1.60;;
22715;SDS011;11525;51.152;4.456;2022-07-30T14:59:22;6.93;;;1.60;;
22715;SDS011;11525;51.152;4.456;2022-07-30T15:01:48;3.30;;;1.40;;
22715;SDS011;11525;51.152;4.456;2022-07-30T15:04:15;4.32;;;1.63;;
22715;SDS011;11525;51.152;4.456;2022-07-30T15:06:41;4.65;;;1.73;;
22715;SDS011;11525;51.152;4.456;2022-07-30T15:09:07;7.90;;;1.80;;
22715;SDS011;11525;51.152;4.456;2022-07-30T15:11:34;7.38;;;2.10;;
22715;SDS011;11525;51.152;4.456;2022-07-30T15:14:00;5.10;;;2.00;;
22715;SDS011;11525;51.152;4.456;2022-07-30T15:16:26;6.68;;;2.42;;
22715;SDS011;11525;51.152;4.456;2022-07-30T15:18:52;3.10;;;1.67;;